sensor_id;sensor_type;location;lat;lon;timestamp;pressure;altitude;pressure_sealevel;temperature;humidity
17855;BME280;9053;53.358;6.382;2022-07-25T00:01:03;100977.75;;;24.59;84.26
17855;BME280;9053;53.358;6.382;2022-07-25T00:03:33;100975.91;;;24.61;84.21
17855;BME280;9053;53.358;6.382;2022-07-25T00:06:05;100970.59;;;24.59;84.17
17855;BME280;9053;53.358;6.382;2022-07-25T00:08:45;100971.47;;;24.60;84.30
17855;BME280;9053;53.358;6.382;2022-07-25T00:11:15;100970.59;;;24.59;84.35
17855;BME280;9053;53.358;6.382;2022-07-25T00:13:45;100965.22;;;24.59;84.68
17855;BME280;9053;53.358;6.382;2022-07-25T00:16:15;100960.75;;;24.58;84.61
17855;BME280;9053;53.358;6.382;2022-07-25T00:18:45;100959.88;;;24.58;84.79
17855;BME280;9053;53.358;6.382;2022-07-25T00:21:15;100958.97;;;24.57;84.79
17855;BME280;9053;53.358;6.382;2022-07-25T00:23:47;100955.44;;;24.55;84.79
17855;BME280;9053;53.358;6.382;2022-07-25T00:26:17;100954.59;;;24.53;84.94
17855;BME280;9053;53.358;6.382;2022-07-25T00:28:47;100951.00;;;24.53;85.09
17855;BME280;9053;53.358;6.382;2022-07-25T00:31:16;100947.50;;;24.49;84.88
17855;BME280;9053;53.358;6.382;2022-07-25T00:33:46;100944.81;;;24.49;84.98
17855;BME280;9053;53.358;6.382;2022-07-25T00:36:16;100939.41;;;24.49;85.01
17855;BME280;9053;53.358;6.382;2022-07-25T00:38:48;100941.22;;;24.49;84.78
17855;BME280;9053;53.358;6.382;2022-07-25T00:41:18;100934.97;;;24.48;84.77
17855;BME280;9053;53.358;6.382;2022-07-25T00:43:48;100926.03;;;24.48;84.95
17855;BME280;9053;53.358;6.382;2022-07-25T00:46:18;100923.38;;;24.46;84.84
17855;BME280;9053;53.358;6.382;2022-07-25T00:48:49;100918.00;;;24.45;85.01
17855;BME280;9053;53.358;6.382;2022-07-25T00:51:19;100918.03;;;24.43;84.97
17855;BME280;9053;53.358;6.382;2022-07-25T00:53:51;100917.19;;;24.41;85.04
17855;BME280;9053;53.358;6.382;2022-07-25T00:56:21;100924.38;;;24.40;84.99
17855;BME280;9053;53.358;6.382;2022-07-25T00:58:51;100921.69;;;24.39;84.93
17855;BME280;9053;53.358;6.382;2022-07-25T01:01:21;100923.56;;;24.37;85.10
17855;BME280;9053;53.358;6.382;2022-07-25T01:03:51;100928.97;;;24.35;84.76
17855;BME280;9053;53.358;6.382;2022-07-25T01:06:21;100927.19;;;24.34;84.75
17855;BME280;9053;53.358;6.382;2022-07-25T01:08:54;100922.69;;;24.35;84.69
17855;BME280;9053;53.358;6.382;2022-07-25T01:11:24;100922.69;;;24.35;85.06
17855;BME280;9053;53.358;6.382;2022-07-25T01:13:54;100928.19;;;24.29;84.99
17855;BME280;9053;53.358;6.382;2022-07-25T01:16:24;100924.59;;;24.30;85.01
17855;BME280;9053;53.358;6.382;2022-07-25T01:18:53;100913.84;;;24.30;85.06
17855;BME280;9053;53.358;6.382;2022-07-25T01:21:26;100924.72;;;24.24;84.95
17855;BME280;9053;53.358;6.382;2022-07-25T01:23:56;100917.59;;;24.23;85.28
17855;BME280;9053;53.358;6.382;2022-07-25T01:26:25;100923.03;;;24.19;85.15
17855;BME280;9053;53.358;6.382;2022-07-25T01:28:56;100922.09;;;24.22;85.40
17855;BME280;9053;53.358;6.382;2022-07-25T01:31:26;100920.28;;;24.21;85.60
17855;BME280;9053;53.358;6.382;2022-07-25T01:33:56;100916.75;;;24.19;85.52
17855;BME280;9053;53.358;6.382;2022-07-25T01:36:28;100923.06;;;24.16;85.50
17855;BME280;9053;53.358;6.382;2022-07-25T01:38:58;100918.63;;;24.15;85.70
17855;BME280;9053;53.358;6.382;2022-07-25T01:41:27;100908.75;;;24.16;85.91
17855;BME280;9053;53.358;6.382;2022-07-25T01:43:57;100917.72;;;24.16;85.95
17855;BME280;9053;53.358;6.382;2022-07-25T01:46:27;100900.75;;;24.14;86.02
17855;BME280;9053;53.358;6.382;2022-07-25T01:48:57;100898.06;;;24.14;86.33
17855;BME280;9053;53.358;6.382;2022-07-25T01:51:29;100896.25;;;24.15;86.29
17855;BME280;9053;53.358;6.382;2022-07-25T01:53:59;100896.28;;;24.13;86.42
17855;BME280;9053;53.358;6.382;2022-07-25T01:56:34;100893.66;;;24.12;86.49
17855;BME280;9053;53.358;6.382;2022-07-25T01:59:06;100887.44;;;24.08;86.75
17855;BME280;9053;53.358;6.382;2022-07-25T02:01:36;100884.81;;;24.05;87.02
17855;BME280;9053;53.358;6.382;2022-07-25T02:04:05;100883.91;;;24.06;87.30
17855;BME280;9053;53.358;6.382;2022-07-25T02:06:38;100875.88;;;24.05;87.34
17855;BME280;9053;53.358;6.382;2022-07-25T02:09:09;100869.69;;;24.01;87.47
17855;BME280;9053;53.358;6.382;2022-07-25T02:11:39;100867.91;;;24.00;87.51
17855;BME280;9053;53.358;6.382;2022-07-25T02:14:08;100863.50;;;23.96;87.75
17855;BME280;9053;53.358;6.382;2022-07-25T02:16:38;100858.19;;;23.94;88.10
17855;BME280;9053;53.358;6.382;2022-07-25T02:19:08;100850.25;;;23.88;88.42
17855;BME280;9053;53.358;6.382;2022-07-25T02:21:40;100850.34;;;23.84;88.75
17855;BME280;9053;53.358;6.382;2022-07-25T02:24:10;100852.25;;;23.79;88.80
17855;BME280;9053;53.358;6.382;2022-07-25T02:26:40;100841.63;;;23.72;89.18
17855;BME280;9053;53.358;6.382;2022-07-25T02:29:10;100845.31;;;23.67;89.50
17855;BME280;9053;53.358;6.382;2022-07-25T02:31:40;100838.19;;;23.64;89.71
17855;BME280;9053;53.358;6.382;2022-07-25T02:34:09;100829.34;;;23.59;89.56
17855;BME280;9053;53.358;6.382;2022-07-25T02:36:42;100816.97;;;23.52;90.08
17855;BME280;9053;53.358;6.382;2022-07-25T02:39:12;100817.94;;;23.48;90.21
17855;BME280;9053;53.358;6.382;2022-07-25T02:41:42;100821.63;;;23.44;90.52
17855;BME280;9053;53.358;6.382;2022-07-25T02:44:12;100815.50;;;23.36;90.76
17855;BME280;9053;53.358;6.382;2022-07-25T02:46:42;100802.31;;;23.23;91.03
17855;BME280;9053;53.358;6.382;2022-07-25T02:49:12;100806.13;;;23.10;91.34
17855;BME280;9053;53.358;6.382;2022-07-25T02:51:45;100801.84;;;23.00;91.69
17855;BME280;9053;53.358;6.382;2022-07-25T02:54:14;100798.34;;;22.95;91.78
17855;BME280;9053;53.358;6.382;2022-07-25T02:56:45;100785.06;;;22.87;92.27
17855;BME280;9053;53.358;6.382;2022-07-25T02:59:15;100788.75;;;22.81;92.78
17855;BME280;9053;53.358;6.382;2022-07-25T03:01:45;100777.28;;;22.73;93.08
17855;BME280;9053;53.358;6.382;2022-07-25T03:04:15;100766.66;;;22.67;93.58
17855;BME280;9053;53.358;6.382;2022-07-25T03:06:48;100767.75;;;22.55;94.40
17855;BME280;9053;53.358;6.382;2022-07-25T03:09:17;100769.53;;;22.55;94.65
17855;BME280;9053;53.358;6.382;2022-07-25T03:11:47;100780.25;;;22.55;94.86
17855;BME280;9053;53.358;6.382;2022-07-25T03:14:17;100769.53;;;22.56;94.75
17855;BME280;9053;53.358;6.382;2022-07-25T03:16:47;100767.66;;;22.60;95.04
17855;BME280;9053;53.358;6.382;2022-07-25T03:19:17;100770.31;;;22.63;94.87
17855;BME280;9053;53.358;6.382;2022-07-25T03:21:49;100765.78;;;22.65;94.67
17855;BME280;9053;53.358;6.382;2022-07-25T03:24:19;100761.28;;;22.67;94.70
17855;BME280;9053;53.358;6.382;2022-07-25T03:26:49;100752.38;;;22.66;94.89
17855;BME280;9053;53.358;6.382;2022-07-25T03:29:18;100735.56;;;22.57;94.79
17855;BME280;9053;53.358;6.382;2022-07-25T03:31:48;100732.19;;;22.45;95.07
17855;BME280;9053;53.358;6.382;2022-07-25T03:34:18;100713.69;;;22.30;95.85
17855;BME280;9053;53.358;6.382;2022-07-25T03:36:50;100719.09;;;22.27;96.22
17855;BME280;9053;53.358;6.382;2022-07-25T03:39:20;100711.91;;;22.29;96.50
17855;BME280;9053;53.358;6.382;2022-07-25T03:41:50;100710.91;;;22.36;96.47
17855;BME280;9053;53.358;6.382;2022-07-25T03:44:22;100702.88;;;22.36;95.87
17855;BME280;9053;53.358;6.382;2022-07-25T03:46:52;100707.41;;;22.33;96.15
17855;BME280;9053;53.358;6.382;2022-07-25T03:49:21;100717.22;;;22.32;96.41
17855;BME280;9053;53.358;6.382;2022-07-25T03:51:54;100711.84;;;22.35;96.57
17855;BME280;9053;53.358;6.382;2022-07-25T03:54:23;100702.84;;;22.38;96.30
17855;BME280;9053;53.358;6.382;2022-07-25T03:56:53;100694.81;;;22.38;96.10
17855;BME280;9053;53.358;6.382;2022-07-25T03:59:23;100704.69;;;22.34;96.26
17855;BME280;9053;53.358;6.382;2022-07-25T04:01:53;100693.03;;;22.38;96.39
17855;BME280;9053;53.358;6.382;2022-07-25T04:04:23;100682.31;;;22.38;95.70
17855;BME280;9053;53.358;6.382;2022-07-25T04:06:55;100690.28;;;22.41;95.87
17855;BME280;9053;53.358;6.382;2022-07-25T04:09:25;100694.69;;;22.45;95.74
17855;BME280;9053;53.358;6.382;2022-07-25T04:11:59;100697.31;;;22.49;95.47
17855;BME280;9053;53.358;6.382;2022-07-25T04:14:29;100691.88;;;22.52;95.38
17855;BME280;9053;53.358;6.382;2022-07-25T04:16:59;100690.06;;;22.52;95.20
17855;BME280;9053;53.358;6.382;2022-07-25T04:19:28;100690.94;;;22.56;94.90
17855;BME280;9053;53.358;6.382;2022-07-25T04:22:01;100688.25;;;22.56;94.53
17855;BME280;9053;53.358;6.382;2022-07-25T04:24:30;100689.94;;;22.61;94.35
17855;BME280;9053;53.358;6.382;2022-07-25T04:27:00;100686.31;;;22.64;94.24
17855;BME280;9053;53.358;6.382;2022-07-25T04:29:30;100688.03;;;22.68;94.04
17855;BME280;9053;53.358;6.382;2022-07-25T04:32:00;100675.41;;;22.73;93.67
17855;BME280;9053;53.358;6.382;2022-07-25T04:34:30;100677.97;;;22.78;93.43
17855;BME280;9053;53.358;6.382;2022-07-25T04:37:02;100677.03;;;22.80;93.65
17855;BME280;9053;53.358;6.382;2022-07-25T04:39:32;100681.44;;;22.84;93.47
17855;BME280;9053;53.358;6.382;2022-07-25T04:42:02;100682.31;;;22.86;93.56
17855;BME280;9053;53.358;6.382;2022-07-25T04:44:32;100677.75;;;22.90;93.45
17855;BME280;9053;53.358;6.382;2022-07-25T04:47:02;100681.28;;;22.94;93.61
17855;BME280;9053;53.358;6.382;2022-07-25T04:49:32;100674.94;;;22.98;93.54
17855;BME280;9053;53.358;6.382;2022-07-25T04:52:05;100681.16;;;23.01;93.63
17855;BME280;9053;53.358;6.382;2022-07-25T04:54:35;100674.84;;;23.04;93.45
17855;BME280;9053;53.358;6.382;2022-07-25T04:57:04;100672.97;;;23.07;93.72
17855;BME280;9053;53.358;6.382;2022-07-25T04:59:34;100673.81;;;23.09;93.65
17855;BME280;9053;53.358;6.382;2022-07-25T05:02:04;100663.00;;;23.14;93.55
17855;BME280;9053;53.358;6.382;2022-07-25T05:04:34;100662.94;;;23.17;93.40
17855;BME280;9053;53.358;6.382;2022-07-25T05:07:13;100656.59;;;23.21;93.36
17855;BME280;9053;53.358;6.382;2022-07-25T05:09:43;100660.09;;;23.23;93.62
17855;BME280;9053;53.358;6.382;2022-07-25T05:12:13;100669.00;;;23.25;93.51
17855;BME280;9053;53.358;6.382;2022-07-25T05:14:43;100669.00;;;23.27;93.62
17855;BME280;9053;53.358;6.382;2022-07-25T05:17:13;100667.13;;;23.30;93.60
17855;BME280;9053;53.358;6.382;2022-07-25T05:19:42;100650.06;;;23.33;93.43
17855;BME280;9053;53.358;6.382;2022-07-25T05:22:15;100642.88;;;23.35;93.44
17855;BME280;9053;53.358;6.382;2022-07-25T05:24:44;100645.63;;;23.33;90.80
17855;BME280;9053;53.358;6.382;2022-07-25T05:27:17;100641.84;;;23.41;89.96
17855;BME280;9053;53.358;6.382;2022-07-25T05:29:47;100637.16;;;23.50;89.37
17855;BME280;9053;53.358;6.382;2022-07-25T05:32:17;100646.81;;;23.59;89.39
17855;BME280;9053;53.358;6.382;2022-07-25T05:34:46;100645.78;;;23.65;89.30
17855;BME280;9053;53.358;6.382;2022-07-25T05:37:19;100650.13;;;23.70;89.05
17855;BME280;9053;53.358;6.382;2022-07-25T05:39:48;100653.63;;;23.75;89.15
17855;BME280;9053;53.358;6.382;2022-07-25T05:42:18;100652.66;;;23.78;88.83
17855;BME280;9053;53.358;6.382;2022-07-25T05:44:48;100649.00;;;23.81;88.76
17855;BME280;9053;53.358;6.382;2022-07-25T05:47:18;100657.00;;;23.84;88.79
17855;BME280;9053;53.358;6.382;2022-07-25T05:49:48;100656.03;;;23.86;88.87
17855;BME280;9053;53.358;6.382;2022-07-25T05:52:20;100647.03;;;23.89;88.84
17855;BME280;9053;53.358;6.382;2022-07-25T05:54:50;100639.88;;;23.89;88.72
17855;BME280;9053;53.358;6.382;2022-07-25T05:57:20;100640.66;;;23.93;88.76
17855;BME280;9053;53.358;6.382;2022-07-25T05:59:49;100637.97;;;23.94;88.86
17855;BME280;9053;53.358;6.382;2022-07-25T06:02:19;100639.69;;;23.97;88.85
17855;BME280;9053;53.358;6.382;2022-07-25T06:04:49;100629.78;;;23.99;88.88
17855;BME280;9053;53.358;6.382;2022-07-25T06:07:21;100624.25;;;24.05;88.62
17855;BME280;9053;53.358;6.382;2022-07-25T06:09:51;100633.94;;;24.11;88.58
17855;BME280;9053;53.358;6.382;2022-07-25T06:12:21;100640.00;;;24.19;88.69
17855;BME280;9053;53.358;6.382;2022-07-25T06:14:51;100634.38;;;24.30;88.45
17855;BME280;9053;53.358;6.382;2022-07-25T06:17:21;100617.97;;;24.39;88.38
17855;BME280;9053;53.358;6.382;2022-07-25T06:19:57;100625.88;;;24.47;87.96
17855;BME280;9053;53.358;6.382;2022-07-25T06:22:31;100620.28;;;24.54;87.79
17855;BME280;9053;53.358;6.382;2022-07-25T06:25:01;100621.81;;;24.65;87.63
17855;BME280;9053;53.358;6.382;2022-07-25T06:27:31;100620.63;;;24.75;87.50
17855;BME280;9053;53.358;6.382;2022-07-25T06:30:02;100620.34;;;24.84;87.10
17855;BME280;9053;53.358;6.382;2022-07-25T06:32:45;100614.69;;;24.95;86.87
17855;BME280;9053;53.358;6.382;2022-07-25T06:35:15;100619.84;;;25.02;86.46
17855;BME280;9053;53.358;6.382;2022-07-25T06:37:48;100620.47;;;25.11;85.98
17855;BME280;9053;53.358;6.382;2022-07-25T06:40:18;100628.25;;;25.21;85.87
17855;BME280;9053;53.358;6.382;2022-07-25T06:42:47;100622.53;;;25.32;85.20
17855;BME280;9053;53.358;6.382;2022-07-25T06:45:17;100625.50;;;25.53;84.81
17855;BME280;9053;53.358;6.382;2022-07-25T06:47:47;100632.44;;;25.60;83.75
17855;BME280;9053;53.358;6.382;2022-07-25T06:50:18;100629.31;;;25.74;83.81
17855;BME280;9053;53.358;6.382;2022-07-25T06:52:50;100624.53;;;25.83;83.07
17855;BME280;9053;53.358;6.382;2022-07-25T06:55:20;100625.03;;;25.96;83.13
17855;BME280;9053;53.358;6.382;2022-07-25T06:57:50;100627.06;;;26.16;82.91
17855;BME280;9053;53.358;6.382;2022-07-25T07:00:20;100624.72;;;26.32;81.62
17855;BME280;9053;53.358;6.382;2022-07-25T07:02:51;100626.97;;;26.44;80.77
17855;BME280;9053;53.358;6.382;2022-07-25T07:05:24;100644.03;;;26.45;80.09
17855;BME280;9053;53.358;6.382;2022-07-25T07:07:57;100646.00;;;26.40;79.82
17855;BME280;9053;53.358;6.382;2022-07-25T07:10:27;100637.75;;;26.44;80.21
17855;BME280;9053;53.358;6.382;2022-07-25T07:13:05;100643.03;;;26.47;80.49
17855;BME280;9053;53.358;6.382;2022-07-25T07:15:36;100637.88;;;26.41;80.11
17855;BME280;9053;53.358;6.382;2022-07-25T07:18:06;100629.22;;;26.31;79.35
17855;BME280;9053;53.358;6.382;2022-07-25T07:20:36;100623.00;;;26.29;79.05
17855;BME280;9053;53.358;6.382;2022-07-25T07:23:09;100621.91;;;26.35;79.22
17855;BME280;9053;53.358;6.382;2022-07-25T07:25:43;100624.44;;;26.40;79.36
17855;BME280;9053;53.358;6.382;2022-07-25T07:28:13;100620.78;;;26.41;78.69
17855;BME280;9053;53.358;6.382;2022-07-25T07:30:43;100607.41;;;26.38;77.63
17855;BME280;9053;53.358;6.382;2022-07-25T07:33:33;100613.13;;;26.55;77.80
17855;BME280;9053;53.358;6.382;2022-07-25T07:36:04;100599.16;;;26.69;77.92
17855;BME280;9053;53.358;6.382;2022-07-25T07:38:36;100601.78;;;26.70;76.24
17855;BME280;9053;53.358;6.382;2022-07-25T07:41:06;100610.88;;;26.68;76.18
17855;BME280;9053;53.358;6.382;2022-07-25T07:43:36;100607.28;;;26.67;75.64
17855;BME280;9053;53.358;6.382;2022-07-25T07:46:06;100604.72;;;26.64;75.53
17855;BME280;9053;53.358;6.382;2022-07-25T07:48:36;100605.63;;;26.63;75.79
17855;BME280;9053;53.358;6.382;2022-07-25T07:51:06;100611.03;;;26.63;75.31
17855;BME280;9053;53.358;6.382;2022-07-25T07:53:39;100606.72;;;26.59;74.94
17855;BME280;9053;53.358;6.382;2022-07-25T07:56:21;100612.22;;;26.56;75.01
17855;BME280;9053;53.358;6.382;2022-07-25T07:58:51;100606.16;;;26.48;74.88
17855;BME280;9053;53.358;6.382;2022-07-25T08:01:20;100603.97;;;26.34;74.68
17855;BME280;9053;53.358;6.382;2022-07-25T08:03:50;100603.44;;;26.23;74.33
17855;BME280;9053;53.358;6.382;2022-07-25T08:06:20;100600.19;;;26.13;74.35
17855;BME280;9053;53.358;6.382;2022-07-25T08:08:53;100604.13;;;26.03;73.26
17855;BME280;9053;53.358;6.382;2022-07-25T08:11:22;100613.28;;;25.99;73.14
17855;BME280;9053;53.358;6.382;2022-07-25T08:13:52;100635.81;;;25.96;72.84
17855;BME280;9053;53.358;6.382;2022-07-25T08:16:22;100631.41;;;25.94;72.99
17855;BME280;9053;53.358;6.382;2022-07-25T08:18:52;100622.75;;;25.82;73.10
17855;BME280;9053;53.358;6.382;2022-07-25T08:21:22;100622.84;;;25.79;73.73
17855;BME280;9053;53.358;6.382;2022-07-25T08:23:54;100606.91;;;25.73;74.16
17855;BME280;9053;53.358;6.382;2022-07-25T08:26:24;100606.31;;;25.63;74.44
17855;BME280;9053;53.358;6.382;2022-07-25T08:28:54;100609.25;;;25.56;75.12
17855;BME280;9053;53.358;6.382;2022-07-25T08:31:43;100611.16;;;25.52;75.94
17855;BME280;9053;53.358;6.382;2022-07-25T08:34:13;100620.31;;;25.46;76.83
17855;BME280;9053;53.358;6.382;2022-07-25T08:36:43;100615.03;;;25.43;77.32
17855;BME280;9053;53.358;6.382;2022-07-25T08:39:15;100588.25;;;25.39;77.51
17855;BME280;9053;53.358;6.382;2022-07-25T08:41:46;100605.38;;;25.36;77.68
17855;BME280;9053;53.358;6.382;2022-07-25T08:44:17;100625.97;;;25.37;77.98
17855;BME280;9053;53.358;6.382;2022-07-25T08:46:48;100607.19;;;25.36;78.07
17855;BME280;9053;53.358;6.382;2022-07-25T08:49:19;100633.31;;;25.32;78.53
17855;BME280;9053;53.358;6.382;2022-07-25T08:51:49;100627.06;;;25.32;78.65
17855;BME280;9053;53.358;6.382;2022-07-25T08:54:23;100626.31;;;25.26;78.72
17855;BME280;9053;53.358;6.382;2022-07-25T08:56:52;100622.72;;;25.28;78.98
17855;BME280;9053;53.358;6.382;2022-07-25T08:59:22;100631.66;;;25.28;78.93
17855;BME280;9053;53.358;6.382;2022-07-25T09:01:52;100639.03;;;25.21;79.15
17855;BME280;9053;53.358;6.382;2022-07-25T09:04:24;100641.63;;;25.24;79.15
17855;BME280;9053;53.358;6.382;2022-07-25T09:06:54;100640.63;;;25.27;78.87
17855;BME280;9053;53.358;6.382;2022-07-25T09:09:34;100650.59;;;25.25;78.90
17855;BME280;9053;53.358;6.382;2022-07-25T09:12:06;100645.13;;;25.28;79.01
17855;BME280;9053;53.358;6.382;2022-07-25T09:14:42;100646.13;;;25.24;79.17
17855;BME280;9053;53.358;6.382;2022-07-25T09:17:14;100643.28;;;25.29;79.34
17855;BME280;9053;53.358;6.382;2022-07-25T09:19:52;100647.69;;;25.33;79.26
17855;BME280;9053;53.358;6.382;2022-07-25T09:22:22;100631.47;;;25.34;79.07
17855;BME280;9053;53.358;6.382;2022-07-25T09:24:55;100628.75;;;25.34;78.25
17855;BME280;9053;53.358;6.382;2022-07-25T09:27:31;100643.06;;;25.36;77.44
17855;BME280;9053;53.358;6.382;2022-07-25T09:30:11;100633.16;;;25.37;76.78
17855;BME280;9053;53.358;6.382;2022-07-25T09:32:41;100633.97;;;25.40;76.47
17855;BME280;9053;53.358;6.382;2022-07-25T09:35:11;100617.81;;;25.40;76.26
17855;BME280;9053;53.358;6.382;2022-07-25T09:37:41;100625.09;;;25.37;76.39
17855;BME280;9053;53.358;6.382;2022-07-25T09:40:14;100631.19;;;25.43;76.63
17855;BME280;9053;53.358;6.382;2022-07-25T09:42:49;100620.41;;;25.43;76.01
17855;BME280;9053;53.358;6.382;2022-07-25T09:45:19;100629.41;;;25.42;75.67
17855;BME280;9053;53.358;6.382;2022-07-25T09:47:57;100657.47;;;25.35;74.84
17855;BME280;9053;53.358;6.382;2022-07-25T09:50:28;100654.03;;;25.30;75.43
17855;BME280;9053;53.358;6.382;2022-07-25T09:53:00;100628.97;;;25.28;77.57
17855;BME280;9053;53.358;6.382;2022-07-25T09:55:33;100644.56;;;25.15;79.89
17855;BME280;9053;53.358;6.382;2022-07-25T09:58:03;100680.41;;;24.84;81.77
17855;BME280;9053;53.358;6.382;2022-07-25T10:00:33;100686.34;;;24.65;83.37
17855;BME280;9053;53.358;6.382;2022-07-25T10:03:25;100681.19;;;24.57;84.84
17855;BME280;9053;53.358;6.382;2022-07-25T10:06:10;100667.75;;;24.57;85.43
17855;BME280;9053;53.358;6.382;2022-07-25T10:08:43;100663.19;;;24.59;85.74
17855;BME280;9053;53.358;6.382;2022-07-25T10:11:24;100689.28;;;24.55;87.00
17855;BME280;9053;53.358;6.382;2022-07-25T10:13:55;100723.72;;;24.39;87.73
17855;BME280;9053;53.358;6.382;2022-07-25T10:16:26;100687.16;;;24.32;88.40
17855;BME280;9053;53.358;6.382;2022-07-25T10:18:57;100651.13;;;24.39;89.12
17855;BME280;9053;53.358;6.382;2022-07-25T10:21:27;100646.63;;;24.40;90.26
17855;BME280;9053;53.358;6.382;2022-07-25T10:23:59;100650.03;;;24.48;90.66
17855;BME280;9053;53.358;6.382;2022-07-25T10:26:36;100659.47;;;24.65;91.07
17855;BME280;9053;53.358;6.382;2022-07-25T10:29:08;100678.84;;;24.77;90.91
17855;BME280;9053;53.358;6.382;2022-07-25T10:31:41;100666.06;;;24.84;90.87
17855;BME280;9053;53.358;6.382;2022-07-25T10:34:26;100646.91;;;24.96;89.51
17855;BME280;9053;53.358;6.382;2022-07-25T10:37:08;100671.94;;;25.00;88.54
17855;BME280;9053;53.358;6.382;2022-07-25T10:39:39;100672.81;;;25.00;88.22
17855;BME280;9053;53.358;6.382;2022-07-25T10:42:16;100663.53;;;25.11;88.12
17855;BME280;9053;53.358;6.382;2022-07-25T10:44:52;100669.66;;;25.16;87.59
17855;BME280;9053;53.358;6.382;2022-07-25T10:47:25;100681.09;;;25.24;87.51
17855;BME280;9053;53.358;6.382;2022-07-25T10:49:56;100671.97;;;25.30;87.32
17855;BME280;9053;53.358;6.382;2022-07-25T10:52:57;100692.88;;;25.20;86.30
17855;BME280;9053;53.358;6.382;2022-07-25T10:55:27;100683.16;;;25.14;86.53
17855;BME280;9053;53.358;6.382;2022-07-25T10:58:04;100686.78;;;25.13;86.48
17855;BME280;9053;53.358;6.382;2022-07-25T11:00:43;100706.47;;;25.15;86.00
17855;BME280;9053;53.358;6.382;2022-07-25T11:03:13;100705.63;;;25.13;86.14
17855;BME280;9053;53.358;6.382;2022-07-25T11:05:44;100703.81;;;25.14;85.74
17855;BME280;9053;53.358;6.382;2022-07-25T11:08:15;100695.53;;;25.21;85.75
17855;BME280;9053;53.358;6.382;2022-07-25T11:10:50;100686.22;;;25.33;85.83
17855;BME280;9053;53.358;6.382;2022-07-25T11:13:23;100690.13;;;25.23;85.01
17855;BME280;9053;53.358;6.382;2022-07-25T11:15:55;100681.31;;;25.18;84.57
17855;BME280;9053;53.358;6.382;2022-07-25T11:18:33;100696.88;;;25.05;84.60
17855;BME280;9053;53.358;6.382;2022-07-25T11:21:04;100695.38;;;24.95;84.42
17855;BME280;9053;53.358;6.382;2022-07-25T11:23:35;100701.09;;;24.82;84.55
17855;BME280;9053;53.358;6.382;2022-07-25T11:26:06;100703.91;;;24.78;84.64
17855;BME280;9053;53.358;6.382;2022-07-25T11:28:41;100699.63;;;24.71;84.73
17855;BME280;9053;53.358;6.382;2022-07-25T11:31:12;100707.66;;;24.72;84.39
17855;BME280;9053;53.358;6.382;2022-07-25T11:33:46;100712.13;;;24.72;83.85
17855;BME280;9053;53.358;6.382;2022-07-25T11:36:16;100717.91;;;24.56;83.78
17855;BME280;9053;53.358;6.382;2022-07-25T11:38:47;100707.22;;;24.55;84.31
17855;BME280;9053;53.358;6.382;2022-07-25T11:41:27;100715.97;;;24.61;83.90
17855;BME280;9053;53.358;6.382;2022-07-25T11:43:59;100713.09;;;24.69;83.31
17855;BME280;9053;53.358;6.382;2022-07-25T11:46:40;100726.31;;;24.77;83.03
17855;BME280;9053;53.358;6.382;2022-07-25T11:49:10;100714.22;;;24.60;82.79
17855;BME280;9053;53.358;6.382;2022-07-25T11:51:40;100722.19;;;24.65;82.23
17855;BME280;9053;53.358;6.382;2022-07-25T11:54:11;100730.16;;;24.68;82.19
17855;BME280;9053;53.358;6.382;2022-07-25T11:56:42;100720.91;;;24.80;82.21
17855;BME280;9053;53.358;6.382;2022-07-25T11:59:15;100725.47;;;24.76;80.82
17855;BME280;9053;53.358;6.382;2022-07-25T12:01:45;100718.25;;;24.77;81.46
17855;BME280;9053;53.358;6.382;2022-07-25T12:04:17;100733.41;;;24.81;80.63
17855;BME280;9053;53.358;6.382;2022-07-25T12:06:48;100735.88;;;24.89;80.66
17855;BME280;9053;53.358;6.382;2022-07-25T12:09:19;100738.66;;;24.86;80.34
17855;BME280;9053;53.358;6.382;2022-07-25T12:12:01;100736.94;;;24.83;81.11
17855;BME280;9053;53.358;6.382;2022-07-25T12:14:41;100737.66;;;24.90;81.08
17855;BME280;9053;53.358;6.382;2022-07-25T12:17:11;100732.03;;;24.99;81.00
17855;BME280;9053;53.358;6.382;2022-07-25T12:19:44;100738.97;;;25.08;80.18
17855;BME280;9053;53.358;6.382;2022-07-25T12:22:14;100737.69;;;25.22;79.54
17855;BME280;9053;53.358;6.382;2022-07-25T12:24:43;100737.38;;;25.33;78.53
17855;BME280;9053;53.358;6.382;2022-07-25T12:27:13;100735.56;;;25.34;76.83
17855;BME280;9053;53.358;6.382;2022-07-25T12:29:46;100743.97;;;25.21;76.08
17855;BME280;9053;53.358;6.382;2022-07-25T12:32:16;100748.59;;;25.15;76.78
17855;BME280;9053;53.358;6.382;2022-07-25T12:34:45;100755.47;;;24.94;77.26
17855;BME280;9053;53.358;6.382;2022-07-25T12:37:15;100751.66;;;24.70;78.12
17855;BME280;9053;53.358;6.382;2022-07-25T12:39:47;100753.47;;;24.68;78.44
17855;BME280;9053;53.358;6.382;2022-07-25T12:42:17;100747.94;;;24.74;78.48
17855;BME280;9053;53.358;6.382;2022-07-25T12:44:49;100754.84;;;24.84;77.89
17855;BME280;9053;53.358;6.382;2022-07-25T12:47:19;100749.31;;;24.90;77.64
17855;BME280;9053;53.358;6.382;2022-07-25T12:49:49;100746.75;;;24.84;78.03
17855;BME280;9053;53.358;6.382;2022-07-25T12:52:19;100745.97;;;24.80;77.92
17855;BME280;9053;53.358;6.382;2022-07-25T12:54:49;100751.34;;;24.80;78.39
17855;BME280;9053;53.358;6.382;2022-07-25T12:57:19;100762.97;;;24.82;78.58
17855;BME280;9053;53.358;6.382;2022-07-25T12:59:51;100752.34;;;24.76;78.51
17855;BME280;9053;53.358;6.382;2022-07-25T13:02:21;100769.94;;;24.55;78.63
17855;BME280;9053;53.358;6.382;2022-07-25T13:04:51;100762.16;;;24.41;78.25
17855;BME280;9053;53.358;6.382;2022-07-25T13:07:21;100764.16;;;24.33;78.09
17855;BME280;9053;53.358;6.382;2022-07-25T13:09:51;100762.84;;;24.51;78.95
17855;BME280;9053;53.358;6.382;2022-07-25T13:12:20;100754.06;;;24.79;78.33
17855;BME280;9053;53.358;6.382;2022-07-25T13:14:53;100759.75;;;25.02;77.21
17855;BME280;9053;53.358;6.382;2022-07-25T13:17:23;100757.81;;;25.08;76.41
17855;BME280;9053;53.358;6.382;2022-07-25T13:19:53;100756.78;;;25.12;75.95
17855;BME280;9053;53.358;6.382;2022-07-25T13:22:24;100761.00;;;25.22;75.88